Time;durP1;ratioP1;P1;durP2;ratioP2;P2;SDS_P1;SDS_P2;PMS_P1;PMS_P2;Temp;Humidity;BMP_temperature;BMP_pressure;BME280_temperature;BME280_humidity;BME280_pressure;Samples;Min_cycle;Max_cycle;Signal;HPM_P1;HPM_P2
2024/01/01 00:01:00;;;;;;;27.20;6.68;;;;;;;7.50;100.00;99667.72;5139630;27;20048;-72
2024/01/01 00:03:25;;;;;;;20.20;5.25;;;;;;;7.50;98.71;99687.28;5135181;27;20023;-72
2024/01/01 00:05:51;;;;;;;19.90;5.60;;;;;;;7.48;99.35;99701.72;5133362;27;20031;-72
2024/01/01 00:08:16;;;;;;;16.50;4.25;;;;;;;7.48;98.97;99685.69;5131671;27;20023;-72
2024/01/01 00:10:44;;;;;;;19.58;4.93;;;;;;;7.44;99.56;99678.91;5150977;27;20026;-72
2024/01/01 00:13:09;;;;;;;18.92;4.68;;;;;;;7.38;98.67;99684.72;5139167;27;20225;-72
2024/01/01 00:15:34;;;;;;;11.70;3.80;;;;;;;7.32;98.81;99686.03;5137258;27;20030;-72
2024/01/01 00:17:59;;;;;;;14.40;3.80;;;;;;;7.26;99.09;99686.53;5134564;27;20105;-72
2024/01/01 00:20:25;;;;;;;18.63;4.28;;;;;;;7.20;99.88;99693.22;5114454;27;20043;-72
2024/01/01 00:22:50;;;;;;;15.38;3.15;;;;;;;7.12;100.00;99699.16;5117645;27;20130;-72
2024/01/01 00:25:15;;;;;;;14.40;4.13;;;;;;;7.06;100.00;99704.09;5118461;27;20106;-72
2024/01/01 00:27:41;;;;;;;14.48;3.72;;;;;;;6.96;100.00;99699.47;5136621;27;20023;-72
2024/01/01 00:30:06;;;;;;;10.75;3.95;;;;;;;6.90;100.00;99693.78;5123260;27;20051;-72
2024/01/01 00:32:32;;;;;;;16.38;3.30;;;;;;;6.84;100.00;99695.09;5120490;27;20027;-72
2024/01/01 00:34:57;;;;;;;14.13;3.70;;;;;;;6.78;100.00;99701.75;5118046;27;20536;-72
2024/01/01 00:37:22;;;;;;;14.05;3.83;;;;;;;6.73;100.00;99700.38;5115989;27;20035;-72
2024/01/01 00:39:48;;;;;;;12.15;3.55;;;;;;;6.68;100.00;99710.56;5119729;27;20068;-72
2024/01/01 00:42:13;;;;;;;14.07;4.50;;;;;;;6.64;100.00;99700.09;5120845;27;20027;-72
2024/01/01 00:44:38;;;;;;;15.90;4.18;;;;;;;6.60;100.00;99687.97;5119515;27;20040;-72
2024/01/01 00:47:03;;;;;;;10.52;3.25;;;;;;;6.54;100.00;99677.75;5116244;27;20020;-72
2024/01/01 00:49:29;;;;;;;14.00;3.33;;;;;;;6.46;100.00;99693.50;5125863;27;20026;-72
2024/01/01 00:51:54;;;;;;;14.95;3.67;;;;;;;6.38;100.00;99699.38;5108887;27;20106;-72
2024/01/01 00:54:19;;;;;;;11.82;3.75;;;;;;;6.36;100.00;99700.50;5115254;27;20066;-72
2024/01/01 00:56:45;;;;;;;15.32;4.03;;;;;;;6.33;100.00;99688.22;5114521;27;20397;-72
2024/01/01 00:59:10;;;;;;;14.25;4.93;;;;;;;6.29;100.00;99700.91;5113394;27;20051;-72
2024/01/01 01:01:35;;;;;;;17.75;4.18;;;;;;;6.22;100.00;99685.47;5113480;27;20031;-72
2024/01/01 01:04:00;;;;;;;15.63;4.35;;;;;;;6.17;100.00;99690.31;5114232;27;20020;-72
2024/01/01 01:06:26;;;;;;;18.67;5.45;;;;;;;6.14;100.00;99680.72;5115194;27;20440;-72
2024/01/01 01:08:51;;;;;;;17.45;4.70;;;;;;;6.13;100.00;99692.34;5114336;27;20131;-72
2024/01/01 01:11:16;;;;;;;19.77;4.55;;;;;;;6.12;100.00;99702.19;5114361;27;20438;-72
2024/01/01 01:13:42;;;;;;;17.27;4.20;;;;;;;6.13;100.00;99703.03;5120707;27;20023;-72
2024/01/01 01:16:07;;;;;;;15.85;4.43;;;;;;;6.13;100.00;99692.34;5119482;27;20058;-72
2024/01/01 01:18:32;;;;;;;16.63;4.03;;;;;;;6.14;100.00;99699.41;5118959;27;20032;-72
2024/01/01 01:20:57;;;;;;;13.48;4.13;;;;;;;6.17;100.00;99699.16;5118688;27;20391;-72
2024/01/01 01:23:23;;;;;;;16.40;3.45;;;;;;;6.20;100.00;99700.78;5113123;27;20035;-72
2024/01/01 01:25:49;;;;;;;12.48;3.55;;;;;;;6.22;100.00;99712.16;5116425;27;20031;-72
2024/01/01 01:28:24;;;;;;;11.63;3.28;;;;;;;6.27;100.00;99712.69;5113693;27;20099;-72
2024/01/01 01:30:49;;;;;;;13.85;3.20;;;;;;;6.29;100.00;99710.75;5124727;27;20085;-73
2024/01/01 01:33:14;;;;;;;11.73;3.45;;;;;;;6.32;100.00;99712.34;5121702;27;20019;-73
2024/01/01 01:35:40;;;;;;;10.35;3.10;;;;;;;6.30;100.00;99713.31;5114223;27;20027;-73
2024/01/01 01:38:05;;;;;;;16.67;3.47;;;;;;;6.33;100.00;99703.38;5120293;27;20110;-73
2024/01/01 01:40:30;;;;;;;13.52;3.20;;;;;;;6.31;100.00;99706.19;5110375;27;20031;-74
2024/01/01 01:42:55;;;;;;;13.70;3.15;;;;;;;6.27;100.00;99694.84;5118329;27;20039;-73
2024/01/01 01:45:22;;;;;;;15.40;3.38;;;;;;;6.26;100.00;99702.97;5113710;27;20024;-73
2024/01/01 01:47:48;;;;;;;13.02;2.78;;;;;;;6.22;100.00;99689.03;5117913;27;20023;-73
2024/01/01 01:50:14;;;;;;;17.42;3.22;;;;;;;6.20;100.00;99698.94;5121784;27;20130;-73
2024/01/01 01:52:40;;;;;;;18.13;4.15;;;;;;;6.19;100.00;99699.91;5125278;27;20608;-73
2024/01/01 01:55:06;;;;;;;11.27;3.35;;;;;;;6.16;100.00;99705.47;5120632;27;20062;-73
2024/01/01 01:57:33;;;;;;;15.05;3.45;;;;;;;6.16;100.00;99705.47;5121669;27;20034;-73
2024/01/01 01:59:59;;;;;;;18.40;3.47;;;;;;;6.17;100.00;99709.84;5120102;27;20036;-73
2024/01/01 02:02:26;;;;;;;14.82;3.80;;;;;;;6.18;100.00;99711.56;5114471;27;20019;-73
2024/01/01 02:04:52;;;;;;;12.52;2.95;;;;;;;6.21;100.00;99700.66;5136630;27;20069;-73
2024/01/01 02:07:17;;;;;;;19.15;3.45;;;;;;;6.26;100.00;99703.81;5119559;27;20076;-73
2024/01/01 02:09:43;;;;;;;19.40;3.30;;;;;;;6.29;100.00;99702.75;5119467;27;20050;-73
2024/01/01 02:12:08;;;;;;;13.85;3.17;;;;;;;6.33;100.00;99704.22;5115095;28;20386;-73
2024/01/01 02:14:34;;;;;;;21.10;3.28;;;;;;;6.36;100.00;99719.16;5123938;27;20026;-73
2024/01/01 02:17:00;;;;;;;10.63;2.92;;;;;;;6.39;100.00;99695.75;5118209;27;20084;-73
2024/01/01 02:19:26;;;;;;;14.45;3.25;;;;;;;6.40;100.00;99705.47;5115603;28;20620;-73
2024/01/01 02:21:53;;;;;;;20.20;3.75;;;;;;;6.44;100.00;99711.44;5120336;27;20019;-73
2024/01/01 02:24:20;;;;;;;14.73;3.22;;;;;;;6.45;100.00;99708.66;5118947;28;20114;-73
2024/01/01 02:26:47;;;;;;;13.07;3.30;;;;;;;6.48;100.00;99715.56;5123375;27;20023;-73
2024/01/01 02:29:13;;;;;;;20.67;4.07;;;;;;;6.46;100.00;99714.84;5119530;28;20470;-73
2024/01/01 02:31:38;;;;;;;14.60;3.40;;;;;;;6.45;100.00;99721.16;5115010;28;20395;-73
2024/01/01 02:34:04;;;;;;;14.15;3.08;;;;;;;6.44;100.00;99733.66;5120194;28;20031;-73
2024/01/01 02:36:34;;;;;;;17.15;3.83;;;;;;;6.44;100.00;99733.66;5116095;27;20077;-73
2024/01/01 02:38:59;;;;;;;16.77;3.60;;;;;;;6.45;100.00;99740.66;5120317;27;20041;-72
2024/01/01 02:41:24;;;;;;;14.75;3.72;;;;;;;6.44;100.00;99733.66;5114142;28;20030;-72
2024/01/01 02:43:50;;;;;;;14.63;3.67;;;;;;;6.45;100.00;99737.16;5111820;28;20046;-72
2024/01/01 02:46:15;;;;;;;16.67;3.17;;;;;;;6.45;100.00;99742.50;5115107;28;20019;-72
2024/01/01 02:48:40;;;;;;;13.40;3.25;;;;;;;6.43;100.00;99742.63;5117041;28;20030;-72
2024/01/01 02:51:05;;;;;;;19.88;4.38;;;;;;;6.42;100.00;99735.56;5111129;27;20118;-72
2024/01/01 02:53:32;;;;;;;11.73;2.95;;;;;;;6.40;100.00;99742.84;5104481;28;20031;-74
2024/01/01 02:55:57;;;;;;;18.80;3.25;;;;;;;6.40;100.00;99749.97;5109841;28;20031;-72
2024/01/01 02:58:23;;;;;;;16.00;4.00;;;;;;;6.40;100.00;99741.97;5109002;28;20486;-72
2024/01/01 03:00:48;;;;;;;16.08;3.42;;;;;;;6.39;100.00;99748.28;5119096;28;20027;-72
2024/01/01 03:03:17;;;;;;;14.57;3.70;;;;;;;6.37;100.00;99740.41;5117719;28;20020;-72
2024/01/01 03:05:43;;;;;;;17.48;3.50;;;;;;;6.39;100.00;99740.28;5134169;27;20038;-74
2024/01/01 03:08:09;;;;;;;18.10;3.92;;;;;;;6.38;100.00;99741.25;5112168;28;20023;-72
2024/01/01 03:10:35;;;;;;;15.15;3.70;;;;;;;6.37;100.00;99748.41;5121574;28;20478;-72
2024/01/01 03:13:00;;;;;;;10.80;2.72;;;;;;;6.39;100.00;99761.63;5119017;28;20039;-72
2024/01/01 03:15:26;;;;;;;16.17;3.58;;;;;;;6.37;100.00;99753.75;5120359;28;20045;-72
2024/01/01 03:17:51;;;;;;;15.93;3.65;;;;;;;6.35;100.00;99752.16;5121277;27;20062;-72
2024/01/01 03:20:16;;;;;;;16.67;3.40;;;;;;;6.34;100.00;99748.63;5129898;28;20032;-72
2024/01/01 03:22:42;;;;;;;12.48;2.92;;;;;;;6.33;100.00;99746.09;5125850;28;20096;-72
2024/01/01 03:25:09;;;;;;;13.40;3.10;;;;;;;6.27;100.00;99748.22;5125024;27;20034;-72
2024/01/01 03:27:35;;;;;;;20.17;3.25;;;;;;;6.24;100.00;99751.13;5127360;27;20030;-72
2024/01/01 03:30:01;;;;;;;16.50;3.85;;;;;;;6.23;100.00;99757.41;5124698;27;20030;-72
2024/01/01 03:32:26;;;;;;;20.67;4.38;;;;;;;6.27;100.00;99769.56;5128205;27;20015;-72
2024/01/01 03:34:51;;;;;;;17.30;3.58;;;;;;;6.29;100.00;99772.97;5131747;27;20047;-72
2024/01/01 03:37:16;;;;;;;16.60;3.05;;;;;;;6.30;100.00;99765.84;5128808;27;20024;-72
2024/01/01 03:39:42;;;;;;;19.25;3.58;;;;;;;6.30;100.00;99750.66;5131267;27;20038;-72
2024/01/01 03:42:07;;;;;;;22.73;4.45;;;;;;;6.28;100.00;99759.75;5118106;27;20035;-72
2024/01/01 03:44:32;;;;;;;17.15;3.45;;;;;;;6.25;100.00;99762.63;5127012;27;20032;-72
2024/01/01 03:46:58;;;;;;;18.00;3.95;;;;;;;6.21;100.00;99772.69;5119917;27;20067;-72
2024/01/01 03:49:23;;;;;;;21.00;4.40;;;;;;;6.19;100.00;99779.94;5127175;27;20023;-72
2024/01/01 03:51:48;;;;;;;21.10;3.63;;;;;;;6.20;100.00;99773.66;5120344;27;20466;-73
2024/01/01 03:54:14;;;;;;;15.82;3.55;;;;;;;6.20;100.00;99762.97;5122541;27;20055;-73
2024/01/01 03:56:39;;;;;;;21.83;3.65;;;;;;;6.22;100.00;99776.19;5117194;27;20031;-73
2024/01/01 03:59:05;;;;;;;17.15;3.88;;;;;;;6.22;100.00;99776.19;5118209;27;20026;-73
2024/01/01 04:01:31;;;;;;;15.18;3.80;;;;;;;6.22;100.00;99774.41;5124152;27;20024;-73
2024/01/01 04:04:02;;;;;;;16.55;3.63;;;;;;;6.22;100.00;99779.75;5118216;27;20031;-74
2024/01/01 04:06:27;;;;;;;19.45;3.63;;;;;;;6.24;100.00;99769.78;5117419;27;20332;-74
2024/01/01 04:08:52;;;;;;;16.63;3.70;;;;;;;6.26;100.00;99770.53;5115209;27;20169;-73
2024/01/01 04:11:18;;;;;;;15.65;3.58;;;;;;;6.26;100.00;99777.69;5118100;27;20502;-73
2024/01/01 04:13:43;;;;;;;17.77;3.05;;;;;;;6.26;100.00;99786.53;5116592;27;20027;-73
2024/01/01 04:16:08;;;;;;;15.77;3.78;;;;;;;6.26;100.00;99772.34;5112898;27;20559;-73
2024/01/01 04:18:34;;;;;;;21.67;4.00;;;;;;;6.26;100.00;99775.84;5119348;27;20031;-73
2024/01/01 04:20:59;;;;;;;15.27;3.08;;;;;;;6.25;100.00;99767.97;5112724;27;20382;-73
2024/01/01 04:23:24;;;;;;;16.65;3.15;;;;;;;6.24;100.00;99775.13;5118738;27;20035;-73
2024/01/01 04:25:49;;;;;;;15.10;2.63;;;;;;;6.24;100.00;99782.28;5121774;27;20035;-73
2024/01/01 04:28:15;;;;;;;12.73;2.85;;;;;;;6.24;100.00;99783.13;5121974;27;20028;-73
2024/01/01 04:30:40;;;;;;;7.90;2.75;;;;;;;6.27;100.00;99782.91;5117060;27;20404;-73
2024/01/01 04:33:05;;;;;;;17.00;2.83;;;;;;;6.27;100.00;99774.91;5121992;27;20019;-73
2024/01/01 04:35:32;;;;;;;13.55;2.72;;;;;;;6.29;100.00;99778.31;5114690;27;20102;-73
2024/01/01 04:37:57;;;;;;;12.48;3.20;;;;;;;6.29;100.00;99772.97;5115913;27;20024;-73
2024/01/01 04:40:22;;;;;;;15.70;3.15;;;;;;;6.30;100.00;99785.34;5119303;27;20038;-73
2024/01/01 04:42:49;;;;;;;16.08;3.20;;;;;;;6.33;100.00;99772.78;5123267;27;20036;-74
2024/01/01 04:45:15;;;;;;;13.20;2.80;;;;;;;6.33;100.00;99778.09;5118642;27;20063;-73
2024/01/01 04:47:40;;;;;;;11.35;2.95;;;;;;;6.35;100.00;99778.84;5120888;27;20092;-73
2024/01/01 04:50:06;;;;;;;16.27;3.47;;;;;;;6.36;100.00;99784.06;5119411;27;20012;-73
2024/01/01 04:52:31;;;;;;;12.13;2.65;;;;;;;6.35;100.00;99798.34;5115516;27;20019;-73
2024/01/01 04:54:56;;;;;;;17.00;3.58;;;;;;;6.33;100.00;99797.63;5118649;27;20133;-73
2024/01/01 04:57:22;;;;;;;18.27;3.40;;;;;;;6.32;100.00;99801.25;5115140;27;20498;-73
2024/01/01 04:59:47;;;;;;;18.40;3.10;;;;;;;6.33;100.00;99802.97;5122340;27;20026;-72
2024/01/01 05:02:14;;;;;;;18.23;3.30;;;;;;;6.33;100.00;99797.63;5116958;27;20042;-72
2024/01/01 05:04:40;;;;;;;11.75;2.95;;;;;;;6.33;100.00;99796.78;5114701;27;20024;-72
2024/01/01 05:07:05;;;;;;;18.90;3.28;;;;;;;6.34;100.00;99802.00;5117661;27;20054;-72
2024/01/01 05:09:30;;;;;;;11.48;2.58;;;;;;;6.35;100.00;99810.84;5113877;27;20407;-72
2024/01/01 05:11:56;;;;;;;13.27;3.00;;;;;;;6.36;100.00;99807.25;5120239;27;20023;-72
2024/01/01 05:14:21;;;;;;;17.08;3.10;;;;;;;6.34;100.00;99806.47;5115229;27;20079;-72
2024/01/01 05:16:47;;;;;;;13.43;2.47;;;;;;;6.37;100.00;99814.25;5118722;27;20019;-72
2024/01/01 05:19:12;;;;;;;13.95;3.33;;;;;;;6.36;100.00;99808.06;5116945;27;20040;-72
2024/01/01 05:21:38;;;;;;;11.10;2.88;;;;;;;6.35;100.00;99813.53;5122103;27;20052;-72
2024/01/01 05:24:03;;;;;;;17.02;3.60;;;;;;;6.34;100.00;99819.81;5117209;27;20394;-72
2024/01/01 05:26:28;;;;;;;19.58;3.22;;;;;;;6.35;100.00;99824.19;5115089;27;20035;-72
2024/01/01 05:28:53;;;;;;;8.57;2.03;;;;;;;6.37;100.00;99830.28;5114934;27;20079;-72
2024/01/01 05:31:20;;;;;;;16.25;3.45;;;;;;;6.38;100.00;99826.66;5114156;27;20028;-72
2024/01/01 05:33:46;;;;;;;14.73;3.40;;;;;;;6.39;100.00;99826.53;5114570;27;20023;-72
2024/01/01 05:36:13;;;;;;;13.23;2.83;;;;;;;6.41;100.00;99837.97;5114620;27;20020;-72
2024/01/01 05:38:38;;;;;;;16.63;3.45;;;;;;;6.42;100.00;99836.16;5114598;27;20072;-72
2024/01/01 05:41:03;;;;;;;18.08;3.20;;;;;;;6.41;100.00;99835.31;5116483;27;20022;-72
2024/01/01 05:43:31;;;;;;;15.82;2.83;;;;;;;6.41;100.00;99839.75;5115623;27;20393;-72
2024/01/01 05:45:56;;;;;;;14.48;3.38;;;;;;;6.39;100.00;99841.69;5118281;27;20015;-72
2024/01/01 05:48:21;;;;;;;15.32;2.58;;;;;;;6.39;100.00;99844.38;5106782;27;20431;-72
2024/01/01 05:50:47;;;;;;;16.83;3.45;;;;;;;6.36;100.00;99849.94;5103127;27;20096;-72
2024/01/01 05:53:12;;;;;;;17.20;3.53;;;;;;;6.34;100.00;99859.84;5116471;27;20031;-72
2024/01/01 05:55:37;;;;;;;17.10;3.25;;;;;;;6.32;100.00;99869.78;5113208;27;20023;-72
2024/01/01 05:58:02;;;;;;;16.40;2.78;;;;;;;6.29;100.00;99863.69;5112348;27;20018;-72
2024/01/01 06:00:29;;;;;;;9.57;2.88;;;;;;;6.26;100.00;99874.59;5120391;27;20027;-72
2024/01/01 06:02:54;;;;;;;17.10;3.38;;;;;;;6.26;100.00;99860.41;5110315;27;20032;-72
2024/01/01 06:05:19;;;;;;;17.10;2.90;;;;;;;6.27;100.00;99862.97;5113199;27;20019;-72
2024/01/01 06:07:45;;;;;;;12.30;2.70;;;;;;;6.27;100.00;99870.97;5115417;27;20547;-72
2024/01/01 06:10:11;;;;;;;15.40;3.20;;;;;;;6.26;100.00;99879.09;5121165;27;20091;-72
2024/01/01 06:12:36;;;;;;;13.63;3.38;;;;;;;6.27;100.00;99872.78;5117822;27;20031;-72
2024/01/01 06:15:03;;;;;;;18.35;2.80;;;;;;;6.28;100.00;99872.69;5113711;27;20023;-72
2024/01/01 06:17:28;;;;;;;8.27;2.50;;;;;;;6.26;100.00;99877.25;5119209;27;20049;-72
2024/01/01 06:19:56;;;;;;;12.20;3.08;;;;;;;6.23;100.00;99882.81;5116280;27;20043;-72
2024/01/01 06:22:21;;;;;;;9.40;2.50;;;;;;;6.21;100.00;99874.06;5104325;28;20020;-72
2024/01/01 06:24:46;;;;;;;15.70;2.80;;;;;;;6.20;100.00;99885.69;5119300;27;20023;-72
2024/01/01 06:27:12;;;;;;;15.63;2.97;;;;;;;6.19;100.00;99894.66;5113877;28;20027;-72
2024/01/01 06:29:37;;;;;;;19.10;2.97;;;;;;;6.18;100.00;99890.31;5116110;28;20026;-72
2024/01/01 06:32:02;;;;;;;11.48;2.55;;;;;;;6.14;100.00;99901.31;5112860;28;20023;-72
2024/01/01 06:34:28;;;;;;;14.20;2.70;;;;;;;6.11;100.00;99905.88;5116592;28;20020;-72
2024/01/01 06:36:53;;;;;;;15.82;3.25;;;;;;;6.09;100.00;99912.28;5113434;28;20035;-72
2024/01/01 06:39:20;;;;;;;15.13;2.80;;;;;;;6.05;100.00;99919.66;5117165;28;20111;-72
2024/01/01 06:41:45;;;;;;;13.63;2.85;;;;;;;6.05;100.00;99924.13;5115726;28;20036;-72
2024/01/01 06:44:10;;;;;;;12.27;2.80;;;;;;;6.06;100.00;99929.38;5112280;28;20695;-72
2024/01/01 06:46:35;;;;;;;17.48;3.35;;;;;;;6.07;100.00;99933.72;5111498;28;20069;-72
2024/01/01 06:49:01;;;;;;;10.10;2.45;;;;;;;6.10;100.00;99932.66;5118433;28;20059;-72
2024/01/01 06:51:26;;;;;;;12.50;3.10;;;;;;;6.12;100.00;99939.59;5112361;28;20019;-72
2024/01/01 06:53:52;;;;;;;19.75;3.78;;;;;;;6.16;100.00;99942.06;5118148;27;20036;-72
2024/01/01 06:56:17;;;;;;;17.77;3.35;;;;;;;6.18;100.00;99941.00;5116251;28;20035;-72
2024/01/01 06:58:42;;;;;;;13.38;2.45;;;;;;;6.22;100.00;99954.97;5115228;28;20156;-72
2024/01/01 07:01:08;;;;;;;13.07;3.15;;;;;;;6.25;100.00;99952.09;5115017;27;20490;-72
2024/01/01 07:03:33;;;;;;;15.82;3.20;;;;;;;6.26;100.00;99953.78;5115791;27;20048;-72
2024/01/01 07:05:58;;;;;;;13.55;2.65;;;;;;;6.27;100.00;99960.84;5117562;27;20386;-72
2024/01/01 07:08:24;;;;;;;16.05;3.00;;;;;;;6.24;100.00;99966.41;5109536;27;20027;-72
2024/01/01 07:10:49;;;;;;;15.52;3.17;;;;;;;6.21;100.00;99964.78;5117067;27;20015;-72
2024/01/01 07:13:14;;;;;;;16.05;3.17;;;;;;;6.21;100.00;99970.13;5118290;27;20049;-72
2024/01/01 07:15:40;;;;;;;15.90;3.55;;;;;;;6.20;100.00;99976.41;5120582;27;20055;-72
2024/01/01 07:18:06;;;;;;;17.52;3.38;;;;;;;6.22;100.00;99985.19;5121224;27;20152;-72
2024/01/01 07:20:31;;;;;;;13.20;2.80;;;;;;;6.21;100.00;99980.81;5112075;27;20420;-72
2024/01/01 07:22:57;;;;;;;15.25;3.53;;;;;;;6.19;100.00;99980.03;5117718;27;20118;-72
2024/01/01 07:25:22;;;;;;;20.50;3.58;;;;;;;6.17;100.00;99984.63;5121378;27;20023;-72
2024/01/01 07:27:47;;;;;;;16.52;2.50;;;;;;;6.15;100.00;99993.69;5119672;27;20024;-72
2024/01/01 07:30:14;;;;;;;14.10;3.03;;;;;;;6.10;100.00;99991.34;5118242;27;20050;-72
2024/01/01 07:32:40;;;;;;;15.98;3.70;;;;;;;6.09;100.00;99989.63;5126620;27;20027;-72
2024/01/01 07:35:08;;;;;;;17.05;3.25;;;;;;;6.07;100.00;99991.56;5124588;27;20544;-73
2024/01/01 07:37:33;;;;;;;14.52;3.00;;;;;;;6.06;100.00;99989.84;5125286;27;20448;-72
2024/01/01 07:39:59;;;;;;;17.52;3.17;;;;;;;6.06;100.00;100000.50;5118846;27;20037;-72
2024/01/01 07:42:26;;;;;;;13.45;3.45;;;;;;;6.04;100.00;99997.13;5121231;27;20226;-72
2024/01/01 07:44:51;;;;;;;14.93;2.88;;;;;;;6.04;100.00;100005.13;5120685;27;20023;-72
2024/01/01 07:47:17;;;;;;;13.15;2.85;;;;;;;6.03;100.00;100011.41;5118497;27;20023;-72
2024/01/01 07:49:44;;;;;;;18.90;3.70;;;;;;;6.02;100.00;100001.69;5123601;27;20019;-72
2024/01/01 07:52:10;;;;;;;20.38;3.83;;;;;;;6.00;100.00;100000.94;5121263;27;20019;-72
2024/01/01 07:54:38;;;;;;;12.60;3.15;;;;;;;5.99;100.00;100016.09;5120386;27;20077;-72
2024/01/01 07:57:04;;;;;;;13.27;3.17;;;;;;;5.98;100.00;100008.19;5121115;27;20062;-73
2024/01/01 07:59:29;;;;;;;14.68;2.90;;;;;;;5.95;100.00;100031.41;5126528;27;20055;-72
2024/01/01 08:01:54;;;;;;;14.57;2.92;;;;;;;5.93;100.00;100025.34;5138258;27;20246;-72
2024/01/01 08:04:19;;;;;;;14.73;3.47;;;;;;;5.92;100.00;100028.09;5113872;27;20015;-73
2024/01/01 08:06:45;;;;;;;16.98;3.42;;;;;;;5.91;100.00;100032.56;5137382;27;20076;-72
2024/01/01 08:09:10;;;;;;;15.02;2.90;;;;;;;5.91;100.00;100037.06;5124788;27;20383;-72
2024/01/01 08:11:35;;;;;;;14.98;3.53;;;;;;;5.92;100.00;100055.63;5124753;27;20351;-72
2024/01/01 08:14:01;;;;;;;15.65;2.88;;;;;;;5.94;100.00;100050.19;5120142;27;20030;-72
2024/01/01 08:16:26;;;;;;;13.23;3.15;;;;;;;5.95;100.00;100049.22;5119730;27;20098;-73
2024/01/01 08:18:53;;;;;;;13.05;3.47;;;;;;;5.97;100.00;100063.34;5123715;27;20027;-72
2024/01/01 08:21:18;;;;;;;16.63;3.28;;;;;;;5.99;100.00;100060.56;5121805;27;20390;-72
2024/01/01 08:23:44;;;;;;;17.88;3.63;;;;;;;6.03;100.00;100075.41;5119376;27;20038;-72
2024/01/01 08:26:10;;;;;;;17.85;3.20;;;;;;;6.05;100.00;100066.38;5118290;27;20036;-72
2024/01/01 08:28:35;;;;;;;14.77;3.00;;;;;;;6.08;100.00;100066.16;5119216;27;20039;-72
2024/01/01 08:31:00;;;;;;;18.83;3.95;;;;;;;6.10;100.00;100072.22;5118045;27;20020;-72
2024/01/01 08:33:26;;;;;;;16.58;3.45;;;;;;;6.13;100.00;100071.16;5113019;27;20030;-72
2024/01/01 08:35:55;;;;;;;18.45;4.18;;;;;;;6.14;100.00;100078.22;5113605;27;20041;-72
2024/01/01 08:38:21;;;;;;;17.77;3.38;;;;;;;6.18;100.00;100090.41;5108913;27;20028;-72
2024/01/01 08:40:46;;;;;;;16.45;3.55;;;;;;;6.21;100.00;100090.19;5111657;27;20128;-72
2024/01/01 08:43:11;;;;;;;14.05;3.08;;;;;;;6.28;100.00;100107.50;5112543;27;20505;-72
2024/01/01 08:45:37;;;;;;;13.35;3.40;;;;;;;6.30;100.00;100102.91;5114861;27;20079;-72
2024/01/01 08:48:03;;;;;;;15.05;3.38;;;;;;;6.30;100.00;100100.25;5117497;27;20023;-72
2024/01/01 08:50:28;;;;;;;14.20;2.97;;;;;;;6.31;100.00;100103.78;5118799;27;20413;-72
2024/01/01 08:52:53;;;;;;;19.73;4.05;;;;;;;6.32;100.00;100118.81;5116367;27;20508;-72
2024/01/01 08:55:18;;;;;;;17.50;3.47;;;;;;;6.34;100.00;100113.38;5116628;27;20019;-72
2024/01/01 08:57:44;;;;;;;13.43;3.53;;;;;;;6.35;100.00;100112.44;5114500;27;20525;-72
2024/01/01 09:00:10;;;;;;;16.50;4.10;;;;;;;6.36;100.00;100115.00;5118549;27;20023;-72
2024/01/01 09:02:35;;;;;;;15.55;3.60;;;;;;;6.37;100.00;100121.16;5119691;27;20020;-72
2024/01/01 09:05:00;;;;;;;12.82;3.10;;;;;;;6.37;100.00;100116.72;5111855;27;20024;-72
2024/01/01 09:07:25;;;;;;;16.00;3.53;;;;;;;6.36;100.00;100112.31;5118809;27;20382;-72
2024/01/01 09:09:51;;;;;;;11.38;3.22;;;;;;;6.39;100.00;100129.94;5115423;27;20027;-72
2024/01/01 09:12:16;;;;;;;14.85;3.10;;;;;;;6.40;100.00;100131.63;5113604;27;20490;-72
2024/01/01 09:14:41;;;;;;;15.82;3.42;;;;;;;6.42;100.00;100132.41;5111720;27;20034;-72
2024/01/01 09:17:09;;;;;;;13.27;3.50;;;;;;;6.44;100.00;100155.38;5115126;27;20119;-72
2024/01/01 09:19:37;;;;;;;17.77;3.85;;;;;;;6.47;100.00;100146.28;5113177;27;20457;-72
2024/01/01 09:22:03;;;;;;;13.95;3.00;;;;;;;6.45;100.00;100141.06;5118221;27;20023;-72
2024/01/01 09:24:28;;;;;;;16.58;3.28;;;;;;;6.45;100.00;100158.88;5117692;27;20049;-72
2024/01/01 09:26:53;;;;;;;11.20;2.85;;;;;;;6.37;100.00;100161.22;5118148;27;20023;-72
2024/01/01 09:29:18;;;;;;;16.42;3.75;;;;;;;6.34;100.00;100164.97;5117506;27;20020;-72
2024/01/01 09:31:44;;;;;;;13.52;2.67;;;;;;;6.34;100.00;100166.75;5117988;27;20034;-72
2024/01/01 09:34:09;;;;;;;15.30;3.30;;;;;;;6.32;100.00;100155.34;5119675;27;20015;-72
2024/01/01 09:36:35;;;;;;;14.98;3.28;;;;;;;6.36;100.00;100175.53;5117374;27;20110;-72
2024/01/01 09:39:00;;;;;;;14.73;3.00;;;;;;;6.35;100.00;100176.47;5114022;27;20016;-72
2024/01/01 09:41:26;;;;;;;17.63;3.78;;;;;;;6.36;100.00;100167.53;5118855;27;20022;-72
2024/01/01 09:43:55;;;;;;;9.85;2.47;;;;;;;6.35;100.00;100165.81;5122593;27;20019;-72
2024/01/01 09:46:22;;;;;;;8.53;2.13;;;;;;;6.38;100.00;100186.94;5116072;27;20024;-72
2024/01/01 09:48:48;;;;;;;10.80;3.17;;;;;;;6.39;100.00;100192.19;5110231;27;20019;-72
2024/01/01 09:51:13;;;;;;;16.08;3.28;;;;;;;6.41;100.00;100186.75;5117916;27;20159;-72
2024/01/01 09:53:39;;;;;;;18.70;3.97;;;;;;;6.42;100.00;100193.81;5114602;27;20059;-72
2024/01/01 09:56:05;;;;;;;11.68;2.65;;;;;;;6.43;100.00;100195.53;5114234;27;20182;-72
2024/01/01 09:58:43;;;;;;;16.70;3.25;;;;;;;6.46;100.00;100212.19;5111731;27;20129;-72
2024/01/01 10:01:12;;;;;;;16.35;3.00;;;;;;;6.48;100.00;100206.72;5115576;27;20023;-72
2024/01/01 10:03:38;;;;;;;15.25;3.22;;;;;;;6.51;100.00;100206.53;5116258;27;20101;-72
2024/01/01 10:06:08;;;;;;;17.65;3.60;;;;;;;6.55;100.00;100204.53;5111806;27;20469;-72
2024/01/01 10:08:34;;;;;;;17.83;3.85;;;;;;;6.58;100.00;100210.50;5116738;27;20020;-72
2024/01/01 10:11:15;;;;;;;15.55;3.15;;;;;;;6.61;100.00;100214.78;5116972;27;20023;-74
2024/01/01 10:13:40;;;;;;;13.73;3.17;;;;;;;6.61;100.00;100212.97;5110183;28;20019;-71
2024/01/01 10:16:07;;;;;;;12.45;2.70;;;;;;;6.58;100.00;100213.16;5112302;28;20681;-73
2024/01/01 10:18:32;;;;;;;15.73;3.38;;;;;;;6.56;100.00;100217.78;5113023;27;20382;-72
2024/01/01 10:21:10;;;;;;;13.75;3.20;;;;;;;6.57;100.00;100219.47;5106747;28;20115;-72
2024/01/01 10:23:35;;;;;;;15.50;4.18;;;;;;;6.59;100.00;100220.22;5113926;28;20507;-72
2024/01/01 10:26:11;;;;;;;15.63;3.47;;;;;;;6.67;100.00;100232.22;5112275;28;20043;-72
2024/01/01 10:28:36;;;;;;;16.63;3.83;;;;;;;6.73;100.00;100224.63;5115161;27;20027;-72
2024/01/01 10:31:02;;;;;;;14.75;3.88;;;;;;;6.79;100.00;100224.25;5120259;28;20022;-72
2024/01/01 10:33:29;;;;;;;15.18;3.25;;;;;;;6.88;100.00;100229.91;5109518;27;20030;-72
2024/01/01 10:35:56;;;;;;;14.73;3.22;;;;;;;6.96;100.00;100231.09;5110528;27;20110;-72
2024/01/01 10:38:24;;;;;;;15.77;4.07;;;;;;;7.02;100.00;100234.31;5111539;27;20032;-72
2024/01/01 10:40:53;;;;;;;16.90;4.30;;;;;;;7.06;100.00;100235.78;5113315;27;20038;-72
2024/01/01 10:43:22;;;;;;;12.02;3.53;;;;;;;7.05;100.00;100239.44;5111281;27;20112;-72
2024/01/01 10:45:49;;;;;;;16.08;3.90;;;;;;;7.07;100.00;100240.19;5118985;27;20290;-72
2024/01/01 10:48:15;;;;;;;17.83;4.25;;;;;;;7.06;100.00;100243.81;5117344;27;20022;-72
2024/01/01 10:50:52;;;;;;;17.40;3.42;;;;;;;7.06;100.00;100251.81;5110842;27;20304;-73
2024/01/01 10:53:30;;;;;;;25.55;4.55;;;;;;;7.04;100.00;100253.75;5113386;27;20023;-73
2024/01/01 10:56:34;;;;;;;12.93;3.22;;;;;;;7.05;100.00;100256.31;5113899;27;20043;-73
2024/01/01 10:59:02;;;;;;;18.92;3.53;;;;;;;7.09;100.00;100262.34;5111337;27;20482;-73
2024/01/01 11:01:29;;;;;;;11.43;3.30;;;;;;;7.09;100.00;100246.31;5119148;27;20062;-73
2024/01/01 11:03:54;;;;;;;17.73;3.40;;;;;;;7.08;100.00;100249.91;5112901;27;20035;-73
2024/01/01 11:06:29;;;;;;;14.90;3.58;;;;;;;7.06;100.00;100255.38;5122155;27;20027;-73
2024/01/01 11:08:55;;;;;;;23.42;3.97;;;;;;;7.04;100.00;100243.06;5113236;27;20024;-73
2024/01/01 11:11:33;;;;;;;21.23;5.03;;;;;;;7.05;100.00;100271.50;5116054;27;20097;-73
2024/01/01 11:14:00;;;;;;;20.35;4.13;;;;;;;7.06;100.00;100265.19;5112153;27;20047;-73
2024/01/01 11:16:45;;;;;;;22.83;5.28;;;;;;;7.09;100.00;100268.53;5109361;27;20022;-73
2024/01/01 11:19:34;;;;;;;19.25;4.18;;;;;;;7.18;100.00;100254.53;5110790;27;20044;-73